sensor_id;sensor_type;location;lat;lon;timestamp;pressure;altitude;pressure_sealevel;temperature;humidity
10518;BME280;5307;42.548;22.968;2023-02-13T00:00:34;95515.38;;;-1.30;100.00
10518;BME280;5307;42.548;22.968;2023-02-13T00:03:02;95500.84;;;-1.29;100.00
10518;BME280;5307;42.548;22.968;2023-02-13T00:05:30;95507.13;;;-1.25;100.00
10518;BME280;5307;42.548;22.968;2023-02-13T00:07:57;95514.25;;;-1.29;100.00
10518;BME280;5307;42.548;22.968;2023-02-13T00:10:24;95505.47;;;-1.17;100.00
10518;BME280;5307;42.548;22.968;2023-02-13T00:12:50;95504.47;;;-1.25;100.00
10518;BME280;5307;42.548;22.968;2023-02-13T00:15:17;95510.06;;;-1.51;100.00
10518;BME280;5307;42.548;22.968;2023-02-13T00:17:44;95511.53;;;-1.41;100.00
10518;BME280;5307;42.548;22.968;2023-02-13T00:20:11;95503.97;;;-1.39;100.00
10518;BME280;5307;42.548;22.968;2023-02-13T00:22:39;95502.22;;;-1.23;100.00
10518;BME280;5307;42.548;22.968;2023-02-13T00:25:07;95507.94;;;-1.45;100.00
10518;BME280;5307;42.548;22.968;2023-02-13T00:27:34;95506.31;;;-1.37;100.00
10518;BME280;5307;42.548;22.968;2023-02-13T00:30:01;95515.31;;;-1.42;100.00
10518;BME280;5307;42.548;22.968;2023-02-13T00:32:28;95511.91;;;-1.63;100.00
10518;BME280;5307;42.548;22.968;2023-02-13T00:34:55;95503.34;;;-1.77;100.00
10518;BME280;5307;42.548;22.968;2023-02-13T00:37:23;95509.09;;;-1.88;100.00
10518;BME280;5307;42.548;22.968;2023-02-13T00:39:51;95515.63;;;-1.97;100.00
10518;BME280;5307;42.548;22.968;2023-02-13T00:42:18;95518.09;;;-2.13;100.00
10518;BME280;5307;42.548;22.968;2023-02-13T00:44:48;95522.53;;;-2.17;100.00
10518;BME280;5307;42.548;22.968;2023-02-13T00:47:15;95515.03;;;-2.24;100.00
10518;BME280;5307;42.548;22.968;2023-02-13T00:49:41;95512.94;;;-2.18;100.00
10518;BME280;5307;42.548;22.968;2023-02-13T00:52:08;95513.13;;;-2.23;100.00
10518;BME280;5307;42.548;22.968;2023-02-13T00:54:35;95507.72;;;-2.15;100.00
10518;BME280;5307;42.548;22.968;2023-02-13T00:57:03;95516.94;;;-2.24;100.00
10518;BME280;5307;42.548;22.968;2023-02-13T00:59:30;95527.09;;;-2.18;100.00
10518;BME280;5307;42.548;22.968;2023-02-13T01:01:57;95528.25;;;-2.27;100.00
10518;BME280;5307;42.548;22.968;2023-02-13T01:04:24;95524.25;;;-2.42;100.00
10518;BME280;5307;42.548;22.968;2023-02-13T01:06:52;95525.72;;;-2.24;100.00
10518;BME280;5307;42.548;22.968;2023-02-13T01:09:18;95530.38;;;-1.91;100.00
10518;BME280;5307;42.548;22.968;2023-02-13T01:11:45;95535.41;;;-1.90;100.00
10518;BME280;5307;42.548;22.968;2023-02-13T01:14:13;95526.03;;;-1.96;100.00
10518;BME280;5307;42.548;22.968;2023-02-13T01:16:40;95542.53;;;-1.94;100.00
10518;BME280;5307;42.548;22.968;2023-02-13T01:19:07;95534.81;;;-2.16;100.00
10518;BME280;5307;42.548;22.968;2023-02-13T01:21:34;95533.22;;;-2.38;100.00
10518;BME280;5307;42.548;22.968;2023-02-13T01:24:02;95536.25;;;-2.19;100.00
10518;BME280;5307;42.548;22.968;2023-02-13T01:26:29;95541.25;;;-2.17;100.00
10518;BME280;5307;42.548;22.968;2023-02-13T01:28:56;95541.38;;;-2.34;100.00
10518;BME280;5307;42.548;22.968;2023-02-13T01:31:25;95540.53;;;-2.26;100.00
10518;BME280;5307;42.548;22.968;2023-02-13T01:33:51;95535.13;;;-2.47;100.00
10518;BME280;5307;42.548;22.968;2023-02-13T01:36:21;95543.75;;;-2.42;100.00
10518;BME280;5307;42.548;22.968;2023-02-13T01:38:52;95536.28;;;-2.57;100.00
10518;BME280;5307;42.548;22.968;2023-02-13T01:41:19;95541.16;;;-2.59;100.00
10518;BME280;5307;42.548;22.968;2023-02-13T01:43:48;95537.22;;;-2.53;100.00
10518;BME280;5307;42.548;22.968;2023-02-13T01:46:20;95538.00;;;-2.52;100.00
10518;BME280;5307;42.548;22.968;2023-02-13T01:48:50;95544.34;;;-2.65;100.00
10518;BME280;5307;42.548;22.968;2023-02-13T01:51:22;95544.06;;;-2.73;100.00
10518;BME280;5307;42.548;22.968;2023-02-13T01:53:56;95538.69;;;-2.64;100.00
10518;BME280;5307;42.548;22.968;2023-02-13T01:56:26;95534.03;;;-2.46;100.00
10518;BME280;5307;42.548;22.968;2023-02-13T01:58:56;95544.28;;;-2.19;100.00
10518;BME280;5307;42.548;22.968;2023-02-13T02:01:26;95541.16;;;-1.79;100.00
10518;BME280;5307;42.548;22.968;2023-02-13T02:03:58;95540.31;;;-1.92;100.00
10518;BME280;5307;42.548;22.968;2023-02-13T02:06:28;95545.47;;;-1.87;100.00
10518;BME280;5307;42.548;22.968;2023-02-13T02:08:58;95542.03;;;-1.66;100.00
10518;BME280;5307;42.548;22.968;2023-02-13T02:11:32;95551.88;;;-1.79;100.00
10518;BME280;5307;42.548;22.968;2023-02-13T02:14:01;95541.97;;;-1.78;100.00
10518;BME280;5307;42.548;22.968;2023-02-13T02:16:28;95557.22;;;-1.58;100.00
10518;BME280;5307;42.548;22.968;2023-02-13T02:18:58;95561.88;;;-1.67;100.00
10518;BME280;5307;42.548;22.968;2023-02-13T02:27:13;95566.59;;;-1.64;100.00
10518;BME280;5307;42.548;22.968;2023-02-13T02:30:21;95569.84;;;-1.59;100.00
10518;BME280;5307;42.548;22.968;2023-02-13T02:33:02;95573.13;;;-1.53;100.00
10518;BME280;5307;42.548;22.968;2023-02-13T02:35:37;95554.50;;;-1.50;100.00
10518;BME280;5307;42.548;22.968;2023-02-13T02:38:16;95560.34;;;-1.35;100.00
10518;BME280;5307;42.548;22.968;2023-02-13T02:40:54;95570.19;;;-1.27;100.00
10518;BME280;5307;42.548;22.968;2023-02-13T02:43:30;95569.59;;;-1.12;100.00
10518;BME280;5307;42.548;22.968;2023-02-13T02:46:05;95561.41;;;-1.15;100.00
10518;BME280;5307;42.548;22.968;2023-02-13T02:48:42;95573.94;;;-1.20;100.00
10518;BME280;5307;42.548;22.968;2023-02-13T02:51:32;95561.56;;;-1.12;100.00
10518;BME280;5307;42.548;22.968;2023-02-13T02:54:07;95558.19;;;-1.21;100.00
10518;BME280;5307;42.548;22.968;2023-02-13T02:56:53;95565.03;;;-1.11;100.00
10518;BME280;5307;42.548;22.968;2023-02-13T02:59:24;95564.84;;;-1.27;100.00
10518;BME280;5307;42.548;22.968;2023-02-13T03:02:11;95570.53;;;-1.29;100.00
10518;BME280;5307;42.548;22.968;2023-02-13T03:04:59;95577.28;;;-1.23;100.00
10518;BME280;5307;42.548;22.968;2023-02-13T03:07:44;95576.81;;;-1.25;100.00
10518;BME280;5307;42.548;22.968;2023-02-13T03:10:16;95587.31;;;-1.20;100.00
10518;BME280;5307;42.548;22.968;2023-02-13T03:13:05;95579.44;;;-1.04;100.00
10518;BME280;5307;42.548;22.968;2023-02-13T03:15:48;95583.63;;;-0.94;100.00
10518;BME280;5307;42.548;22.968;2023-02-13T03:18:36;95578.22;;;-1.06;100.00
10518;BME280;5307;42.548;22.968;2023-02-13T03:21:31;95579.81;;;-0.93;100.00
10518;BME280;5307;42.548;22.968;2023-02-13T03:24:24;95584.75;;;-0.95;100.00
10518;BME280;5307;42.548;22.968;2023-02-13T03:27:03;95586.34;;;-0.82;100.00
10518;BME280;5307;42.548;22.968;2023-02-13T03:29:42;95582.44;;;-0.84;100.00
10518;BME280;5307;42.548;22.968;2023-02-13T03:32:33;95587.28;;;-0.99;100.00
10518;BME280;5307;42.548;22.968;2023-02-13T03:35:13;95591.13;;;-1.41;100.00
10518;BME280;5307;42.548;22.968;2023-02-13T03:38:09;95584.97;;;-1.84;100.00
10518;BME280;5307;42.548;22.968;2023-02-13T03:40:43;95587.75;;;-2.01;100.00
10518;BME280;5307;42.548;22.968;2023-02-13T03:43:36;95592.19;;;-2.05;100.00
10518;BME280;5307;42.548;22.968;2023-02-13T03:46:06;95582.94;;;-2.37;100.00
10518;BME280;5307;42.548;22.968;2023-02-13T03:48:35;95589.25;;;-2.12;100.00
10518;BME280;5307;42.548;22.968;2023-02-13T03:51:23;95596.72;;;-1.97;100.00
10518;BME280;5307;42.548;22.968;2023-02-13T03:53:57;95607.50;;;-2.14;100.00
10518;BME280;5307;42.548;22.968;2023-02-13T03:56:26;95608.41;;;-2.01;100.00
10518;BME280;5307;42.548;22.968;2023-02-13T03:59:19;95593.03;;;-2.13;100.00
10518;BME280;5307;42.548;22.968;2023-02-13T04:01:53;95613.81;;;-2.10;100.00
10518;BME280;5307;42.548;22.968;2023-02-13T04:04:24;95600.88;;;-2.08;100.00
10518;BME280;5307;42.548;22.968;2023-02-13T04:06:56;95502.25;;;-2.77;100.00
10518;BME280;5307;42.548;22.968;2023-02-13T04:09:28;95595.56;;;-2.17;100.00
10518;BME280;5307;42.548;22.968;2023-02-13T04:12:01;95599.59;;;-2.02;100.00
10518;BME280;5307;42.548;22.968;2023-02-13T04:14:36;95597.34;;;-2.29;100.00
10518;BME280;5307;42.548;22.968;2023-02-13T04:17:07;95607.50;;;-2.14;100.00
10518;BME280;5307;42.548;22.968;2023-02-13T04:19:34;95600.38;;;-2.01;100.00
10518;BME280;5307;42.548;22.968;2023-02-13T04:22:02;95603.66;;;-1.96;100.00
10518;BME280;5307;42.548;22.968;2023-02-13T04:24:30;95597.09;;;-2.07;100.00
10518;BME280;5307;42.548;22.968;2023-02-13T04:26:58;95607.03;;;-1.87;100.00
10518;BME280;5307;42.548;22.968;2023-02-13T04:29:25;95601.16;;;-2.01;100.00
10518;BME280;5307;42.548;22.968;2023-02-13T04:31:52;95602.47;;;-1.86;100.00
10518;BME280;5307;42.548;22.968;2023-02-13T04:34:19;95598.09;;;-1.91;100.00
10518;BME280;5307;42.548;22.968;2023-02-13T04:36:46;95606.47;;;-1.92;100.00
10518;BME280;5307;42.548;22.968;2023-02-13T04:39:13;95608.72;;;-2.03;100.00
10518;BME280;5307;42.548;22.968;2023-02-13T04:41:41;95604.19;;;-1.82;100.00
10518;BME280;5307;42.548;22.968;2023-02-13T04:44:08;95611.28;;;-1.86;100.00
10518;BME280;5307;42.548;22.968;2023-02-13T04:46:35;95601.88;;;-1.92;100.00
10518;BME280;5307;42.548;22.968;2023-02-13T04:49:02;95605.13;;;-1.77;100.00
10518;BME280;5307;42.548;22.968;2023-02-13T04:51:28;95594.06;;;-1.97;100.00
10518;BME280;5307;42.548;22.968;2023-02-13T04:53:55;95614.19;;;-1.99;100.00
10518;BME280;5307;42.548;22.968;2023-02-13T04:56:22;95606.47;;;-1.92;100.00
10518;BME280;5307;42.548;22.968;2023-02-13T04:58:50;95614.59;;;-2.10;100.00
10518;BME280;5307;42.548;22.968;2023-02-13T05:01:17;95603.00;;;-1.93;100.00
10518;BME280;5307;42.548;22.968;2023-02-13T05:03:44;95611.28;;;-1.86;100.00
10518;BME280;5307;42.548;22.968;2023-02-13T05:06:11;95603.97;;;-1.97;100.00
10518;BME280;5307;42.548;22.968;2023-02-13T05:08:41;95594.88;;;-2.05;100.00
10518;BME280;5307;42.548;22.968;2023-02-13T05:11:08;95603.50;;;-1.99;100.00
10518;BME280;5307;42.548;22.968;2023-02-13T05:13:35;95612.59;;;-2.21;100.00
10518;BME280;5307;42.548;22.968;2023-02-13T05:16:04;95600.59;;;-2.15;100.00
10518;BME280;5307;42.548;22.968;2023-02-13T05:18:32;95620.09;;;-2.15;100.00
10518;BME280;5307;42.548;22.968;2023-02-13T05:20:59;95627.19;;;-2.10;100.00
10518;BME280;5307;42.548;22.968;2023-02-13T05:23:43;95634.09;;;-2.38;100.00
10518;BME280;5307;42.548;22.968;2023-02-13T05:26:10;95629.31;;;-2.24;100.00
10518;BME280;5307;42.548;22.968;2023-02-13T05:28:37;95627.78;;;-2.04;100.00
10518;BME280;5307;42.548;22.968;2023-02-13T05:31:22;95620.22;;;-2.02;100.00
10518;BME280;5307;42.548;22.968;2023-02-13T05:33:49;95631.25;;;-2.04;100.00
10518;BME280;5307;42.548;22.968;2023-02-13T05:36:15;95629.00;;;-1.93;100.00
10518;BME280;5307;42.548;22.968;2023-02-13T05:38:42;95627.66;;;-2.08;100.00
10518;BME280;5307;42.548;22.968;2023-02-13T05:41:09;95640.38;;;-2.05;100.00
10518;BME280;5307;42.548;22.968;2023-02-13T05:43:38;95632.06;;;-2.12;100.00
10518;BME280;5307;42.548;22.968;2023-02-13T05:46:06;95632.63;;;-1.98;100.00
10518;BME280;5307;42.548;22.968;2023-02-13T05:48:35;95630.50;;;-1.84;100.00
10518;BME280;5307;42.548;22.968;2023-02-13T05:51:02;95645.38;;;-1.95;100.00
10518;BME280;5307;42.548;22.968;2023-02-13T05:53:29;95643.41;;;-1.86;100.00
10518;BME280;5307;42.548;22.968;2023-02-13T05:55:59;95639.69;;;-1.93;100.00
10518;BME280;5307;42.548;22.968;2023-02-13T05:58:26;95632.88;;;-1.82;100.00
10518;BME280;5307;42.548;22.968;2023-02-13T06:00:54;95618.41;;;-1.90;100.00
10518;BME280;5307;42.548;22.968;2023-02-13T06:03:22;95642.25;;;-1.97;100.00
10518;BME280;5307;42.548;22.968;2023-02-13T06:05:50;95642.63;;;-1.86;100.00
10518;BME280;5307;42.548;22.968;2023-02-13T06:08:17;95641.03;;;-1.78;100.00
10518;BME280;5307;42.548;22.968;2023-02-13T06:10:43;95642.03;;;-1.62;100.00
10518;BME280;5307;42.548;22.968;2023-02-13T06:13:11;95655.44;;;-1.62;100.00
10518;BME280;5307;42.548;22.968;2023-02-13T06:15:38;95657.38;;;-1.71;100.00
10518;BME280;5307;42.548;22.968;2023-02-13T06:18:05;95650.31;;;-1.55;100.00
10518;BME280;5307;42.548;22.968;2023-02-13T06:20:32;95651.72;;;-1.49;100.00
10518;BME280;5307;42.548;22.968;2023-02-13T06:23:00;95653.50;;;-1.53;100.00
10518;BME280;5307;42.548;22.968;2023-02-13T06:25:27;95662.63;;;-1.54;100.00
10518;BME280;5307;42.548;22.968;2023-02-13T06:27:54;95655.59;;;-1.38;100.00
10518;BME280;5307;42.548;22.968;2023-02-13T06:30:21;95662.69;;;-1.42;100.00
10518;BME280;5307;42.548;22.968;2023-02-13T06:32:48;95657.84;;;-1.48;100.00
10518;BME280;5307;42.548;22.968;2023-02-13T06:35:15;95662.84;;;-1.38;100.00
10518;BME280;5307;42.548;22.968;2023-02-13T06:37:42;95657.28;;;-1.33;100.00
10518;BME280;5307;42.548;22.968;2023-02-13T06:40:12;95660.75;;;-1.54;100.00
10518;BME280;5307;42.548;22.968;2023-02-13T06:42:41;95666.03;;;-1.45;100.00
10518;BME280;5307;42.548;22.968;2023-02-13T06:45:08;95661.84;;;-1.34;100.00
10518;BME280;5307;42.548;22.968;2023-02-13T06:47:39;95668.38;;;-1.43;100.00
10518;BME280;5307;42.548;22.968;2023-02-13T06:50:07;95679.69;;;-1.38;100.00
10518;BME280;5307;42.548;22.968;2023-02-13T06:52:34;95664.41;;;-1.37;100.00
10518;BME280;5307;42.548;22.968;2023-02-13T06:55:01;95671.84;;;-1.43;100.00
10518;BME280;5307;42.548;22.968;2023-02-13T06:57:29;95663.78;;;-1.43;100.00
10518;BME280;5307;42.548;22.968;2023-02-13T06:59:58;95671.16;;;-1.10;100.00
10518;BME280;5307;42.548;22.968;2023-02-13T07:02:25;95676.22;;;-1.17;100.00
10518;BME280;5307;42.548;22.968;2023-02-13T07:04:51;95674.78;;;-1.15;100.00
10518;BME280;5307;42.548;22.968;2023-02-13T07:07:18;95671.78;;;-1.13;100.00
10518;BME280;5307;42.548;22.968;2023-02-13T07:09:45;95678.97;;;-1.05;100.00
10518;BME280;5307;42.548;22.968;2023-02-13T07:12:13;95680.81;;;-0.97;100.00
10518;BME280;5307;42.548;22.968;2023-02-13T07:14:41;95671.38;;;-1.03;100.00
10518;BME280;5307;42.548;22.968;2023-02-13T07:17:08;95657.41;;;-1.09;100.00
10518;BME280;5307;42.548;22.968;2023-02-13T07:19:35;95664.63;;;-0.88;100.00
10518;BME280;5307;42.548;22.968;2023-02-13T07:22:02;95668.31;;;-0.93;100.00
10518;BME280;5307;42.548;22.968;2023-02-13T07:24:29;95664.25;;;-0.78;100.00
10518;BME280;5307;42.548;22.968;2023-02-13T07:26:58;95663.16;;;-0.65;100.00
10518;BME280;5307;42.548;22.968;2023-02-13T07:29:24;95673.78;;;-0.56;100.00
10518;BME280;5307;42.548;22.968;2023-02-13T07:31:53;95670.66;;;-0.58;100.00
10518;BME280;5307;42.548;22.968;2023-02-13T07:34:20;95674.13;;;-0.91;100.00
10518;BME280;5307;42.548;22.968;2023-02-13T07:36:47;95673.88;;;-0.98;100.00
10518;BME280;5307;42.548;22.968;2023-02-13T07:39:14;95676.44;;;-1.23;100.00
10518;BME280;5307;42.548;22.968;2023-02-13T07:41:41;95678.41;;;-1.11;100.00
10518;BME280;5307;42.548;22.968;2023-02-13T07:44:08;95665.38;;;-1.00;100.00
10518;BME280;5307;42.548;22.968;2023-02-13T07:46:35;95677.94;;;-0.92;100.00
10518;BME280;5307;42.548;22.968;2023-02-13T07:49:03;95660.59;;;-0.95;100.00
10518;BME280;5307;42.548;22.968;2023-02-13T07:51:30;95677.53;;;-0.82;100.00
10518;BME280;5307;42.548;22.968;2023-02-13T07:53:56;95674.91;;;-0.57;100.00
10518;BME280;5307;42.548;22.968;2023-02-13T07:56:23;95671.72;;;-0.72;100.00
10518;BME280;5307;42.548;22.968;2023-02-13T07:58:50;95679.22;;;-0.77;100.00
10518;BME280;5307;42.548;22.968;2023-02-13T08:01:17;95679.59;;;-0.67;100.00
10518;BME280;5307;42.548;22.968;2023-02-13T08:03:47;95684.69;;;-0.74;100.00
10518;BME280;5307;42.548;22.968;2023-02-13T08:06:16;95674.72;;;-0.52;100.00
10518;BME280;5307;42.548;22.968;2023-02-13T08:08:43;95679.97;;;-0.56;100.00
10518;BME280;5307;42.548;22.968;2023-02-13T08:11:21;95672.03;;;-0.52;100.00
10518;BME280;5307;42.548;22.968;2023-02-13T08:14:06;95656.72;;;-0.52;100.00
10518;BME280;5307;42.548;22.968;2023-02-13T08:16:33;95668.28;;;-0.15;100.00
10518;BME280;5307;42.548;22.968;2023-02-13T08:18:59;95670.56;;;0.08;100.00
10518;BME280;5307;42.548;22.968;2023-02-13T08:21:28;95667.88;;;0.08;100.00
10518;BME280;5307;42.548;22.968;2023-02-13T08:23:54;95666.66;;;0.05;100.00
10518;BME280;5307;42.548;22.968;2023-02-13T08:26:21;95663.84;;;0.26;100.00
10518;BME280;5307;42.548;22.968;2023-02-13T08:28:48;95659.50;;;0.21;100.00
10518;BME280;5307;42.548;22.968;2023-02-13T08:31:15;95662.72;;;0.39;100.00
10518;BME280;5307;42.548;22.968;2023-02-13T08:33:42;95649.59;;;0.62;100.00
10518;BME280;5307;42.548;22.968;2023-02-13T08:36:09;95652.78;;;0.92;100.00
10518;BME280;5307;42.548;22.968;2023-02-13T08:38:37;95656.34;;;1.24;100.00
10518;BME280;5307;42.548;22.968;2023-02-13T08:41:04;95645.88;;;1.35;100.00
10518;BME280;5307;42.548;22.968;2023-02-13T08:43:32;95648.22;;;1.08;99.16
10518;BME280;5307;42.548;22.968;2023-02-13T08:45:59;95641.91;;;1.44;99.07
10518;BME280;5307;42.548;22.968;2023-02-13T08:48:26;95639.09;;;2.00;96.71
10518;BME280;5307;42.548;22.968;2023-02-13T08:50:53;95643.97;;;2.26;94.57
10518;BME280;5307;42.548;22.968;2023-02-13T08:53:20;95640.56;;;2.64;92.12
10518;BME280;5307;42.548;22.968;2023-02-13T08:55:55;95630.03;;;2.94;90.05
10518;BME280;5307;42.548;22.968;2023-02-13T08:58:22;95624.19;;;2.92;86.84
10518;BME280;5307;42.548;22.968;2023-02-13T09:00:49;95621.91;;;3.52;84.08
10518;BME280;5307;42.548;22.968;2023-02-13T09:03:16;95626.47;;;3.29;83.24
10518;BME280;5307;42.548;22.968;2023-02-13T09:05:43;95624.50;;;3.68;80.33
10518;BME280;5307;42.548;22.968;2023-02-13T09:08:10;95623.06;;;3.97;79.57
10518;BME280;5307;42.548;22.968;2023-02-13T09:10:38;95625.91;;;3.81;77.37
10518;BME280;5307;42.548;22.968;2023-02-13T09:13:07;95620.84;;;4.03;76.91
10518;BME280;5307;42.548;22.968;2023-02-13T09:15:36;95624.03;;;4.35;74.20
10518;BME280;5307;42.548;22.968;2023-02-13T09:18:03;95623.34;;;4.38;73.96
10518;BME280;5307;42.548;22.968;2023-02-13T09:20:30;95619.38;;;4.32;73.56
10518;BME280;5307;42.548;22.968;2023-02-13T09:22:57;95621.78;;;4.93;71.96
10518;BME280;5307;42.548;22.968;2023-02-13T09:25:24;95609.56;;;4.76;69.85
10518;BME280;5307;42.548;22.968;2023-02-13T09:27:51;95624.22;;;5.02;68.74
10518;BME280;5307;42.548;22.968;2023-02-13T09:30:19;95621.13;;;4.73;69.10
10518;BME280;5307;42.548;22.968;2023-02-13T09:32:48;95621.09;;;4.43;69.25
10518;BME280;5307;42.548;22.968;2023-02-13T09:35:16;95620.84;;;5.46;69.71
10518;BME280;5307;42.548;22.968;2023-02-13T09:37:42;95610.59;;;4.95;68.40
10518;BME280;5307;42.548;22.968;2023-02-13T09:40:16;95609.94;;;4.75;70.33
10518;BME280;5307;42.548;22.968;2023-02-13T09:42:45;95606.56;;;4.82;69.41
10518;BME280;5307;42.548;22.968;2023-02-13T09:45:14;95604.63;;;5.12;69.68
10518;BME280;5307;42.548;22.968;2023-02-13T09:47:44;95598.47;;;5.52;67.52
10518;BME280;5307;42.548;22.968;2023-02-13T09:50:13;95585.56;;;4.18;68.39
10518;BME280;5307;42.548;22.968;2023-02-13T09:52:43;95585.91;;;5.74;67.55
10518;BME280;5307;42.548;22.968;2023-02-13T09:55:15;95589.19;;;5.90;66.27
10518;BME280;5307;42.548;22.968;2023-02-13T09:57:46;95588.50;;;5.23;64.70
10518;BME280;5307;42.548;22.968;2023-02-13T10:00:19;95580.47;;;6.11;66.41
10518;BME280;5307;42.548;22.968;2023-02-13T10:02:57;95579.41;;;6.30;64.38
10518;BME280;5307;42.548;22.968;2023-02-13T10:05:42;95565.81;;;6.23;65.43
10518;BME280;5307;42.548;22.968;2023-02-13T10:08:18;95563.03;;;6.16;64.73
10518;BME280;5307;42.548;22.968;2023-02-13T10:10:50;95568.56;;;6.30;62.08
10518;BME280;5307;42.548;22.968;2023-02-13T10:13:27;95555.38;;;6.94;60.55
10518;BME280;5307;42.548;22.968;2023-02-13T10:16:01;95551.00;;;6.10;60.65
10518;BME280;5307;42.548;22.968;2023-02-13T10:18:41;95554.22;;;6.99;59.84
10518;BME280;5307;42.548;22.968;2023-02-13T10:21:10;95549.31;;;6.49;59.24
10518;BME280;5307;42.548;22.968;2023-02-13T10:23:42;95547.84;;;6.63;58.73
10518;BME280;5307;42.548;22.968;2023-02-13T10:26:15;95548.09;;;7.20;60.18
10518;BME280;5307;42.548;22.968;2023-02-13T10:28:47;95539.78;;;6.77;58.91
10518;BME280;5307;42.548;22.968;2023-02-13T10:31:38;95543.22;;;6.67;60.60
10518;BME280;5307;42.548;22.968;2023-02-13T10:34:11;95532.25;;;7.61;57.76
10518;BME280;5307;42.548;22.968;2023-02-13T10:36:44;95533.00;;;7.33;57.83
10518;BME280;5307;42.548;22.968;2023-02-13T10:39:21;95535.84;;;6.71;57.79
10518;BME280;5307;42.548;22.968;2023-02-13T10:41:51;95521.81;;;6.58;58.29
10518;BME280;5307;42.548;22.968;2023-02-13T10:44:29;95526.78;;;7.36;57.48
10518;BME280;5307;42.548;22.968;2023-02-13T10:47:12;95522.72;;;6.76;54.83
10518;BME280;5307;42.548;22.968;2023-02-13T10:49:54;95513.22;;;7.54;55.67
10518;BME280;5307;42.548;22.968;2023-02-13T10:52:29;95509.25;;;7.08;56.05
10518;BME280;5307;42.548;22.968;2023-02-13T10:55:07;95505.41;;;7.45;55.94
10518;BME280;5307;42.548;22.968;2023-02-13T10:57:52;95496.13;;;7.50;55.07
10518;BME280;5307;42.548;22.968;2023-02-13T11:00:28;95490.69;;;7.64;55.18
10518;BME280;5307;42.548;22.968;2023-02-13T11:02:58;95489.50;;;8.11;53.46
10518;BME280;5307;42.548;22.968;2023-02-13T11:05:30;95485.66;;;7.62;53.52
10518;BME280;5307;42.548;22.968;2023-02-13T11:07:58;95482.88;;;8.12;53.12
10518;BME280;5307;42.548;22.968;2023-02-13T11:10:26;95481.34;;;7.72;54.27
10518;BME280;5307;42.548;22.968;2023-02-13T11:12:54;95481.31;;;8.40;53.82
10518;BME280;5307;42.548;22.968;2023-02-13T11:15:26;95468.94;;;7.35;53.88
10518;BME280;5307;42.548;22.968;2023-02-13T11:17:55;95468.91;;;7.96;53.89
10518;BME280;5307;42.548;22.968;2023-02-13T11:20:32;95463.47;;;8.10;51.53
10518;BME280;5307;42.548;22.968;2023-02-13T11:23:24;95445.63;;;7.73;52.25
10518;BME280;5307;42.548;22.968;2023-02-13T11:25:55;95458.44;;;7.69;51.96
10518;BME280;5307;42.548;22.968;2023-02-13T11:28:23;95456.44;;;7.02;52.21
10518;BME280;5307;42.548;22.968;2023-02-13T11:30:50;95461.84;;;7.02;52.88
10518;BME280;5307;42.548;22.968;2023-02-13T11:33:22;95451.41;;;7.11;52.45
10518;BME280;5307;42.548;22.968;2023-02-13T11:36:05;95454.16;;;7.29;53.01
10518;BME280;5307;42.548;22.968;2023-02-13T11:38:32;95443.31;;;7.61;51.15
10518;BME280;5307;42.548;22.968;2023-02-13T11:41:05;95445.63;;;7.73;52.19
10518;BME280;5307;42.548;22.968;2023-02-13T11:43:35;95433.16;;;7.87;51.24
10518;BME280;5307;42.548;22.968;2023-02-13T11:46:04;95439.78;;;7.86;50.80
10518;BME280;5307;42.548;22.968;2023-02-13T11:48:32;95433.94;;;7.98;50.03
10518;BME280;5307;42.548;22.968;2023-02-13T11:51:02;95423.47;;;7.86;50.64
10518;BME280;5307;42.548;22.968;2023-02-13T11:53:30;95406.41;;;7.25;49.52
10518;BME280;5307;42.548;22.968;2023-02-13T11:56:04;95415.31;;;7.68;51.64
10518;BME280;5307;42.548;22.968;2023-02-13T11:58:31;95414.53;;;7.14;52.45
10518;BME280;5307;42.548;22.968;2023-02-13T12:01:20;95406.81;;;7.48;52.84
10518;BME280;5307;42.548;22.968;2023-02-13T12:04:00;95397.50;;;7.35;52.33
10518;BME280;5307;42.548;22.968;2023-02-13T12:06:30;95385.81;;;7.59;51.17
10518;BME280;5307;42.548;22.968;2023-02-13T12:09:04;95386.63;;;7.49;51.03
10518;BME280;5307;42.548;22.968;2023-02-13T12:11:41;95391.25;;;7.59;51.41
10518;BME280;5307;42.548;22.968;2023-02-13T12:14:11;95384.66;;;7.10;50.75
10518;BME280;5307;42.548;22.968;2023-02-13T12:16:42;95381.94;;;7.25;49.75
10518;BME280;5307;42.548;22.968;2023-02-13T12:19:14;95376.50;;;7.39;51.24
10518;BME280;5307;42.548;22.968;2023-02-13T12:21:53;95384.28;;;7.37;52.54
10518;BME280;5307;42.548;22.968;2023-02-13T12:24:37;95372.22;;;6.84;51.85
10518;BME280;5307;42.548;22.968;2023-02-13T12:27:12;95379.59;;;7.16;51.85
10518;BME280;5307;42.548;22.968;2023-02-13T12:30:12;95368.75;;;7.34;52.86
10518;BME280;5307;42.548;22.968;2023-02-13T12:32:47;95363.66;;;6.65;52.80
10518;BME280;5307;42.548;22.968;2023-02-13T12:35:27;95362.88;;;6.64;54.61
10518;BME280;5307;42.548;22.968;2023-02-13T12:38:03;95363.28;;;6.77;54.47
10518;BME280;5307;42.548;22.968;2023-02-13T12:41:00;95361.28;;;6.49;54.40
10518;BME280;5307;42.548;22.968;2023-02-13T12:43:57;95356.28;;;6.65;54.39
10518;BME280;5307;42.548;22.968;2023-02-13T12:46:32;95354.69;;;6.53;54.31
10518;BME280;5307;42.548;22.968;2023-02-13T12:49:10;95341.94;;;6.86;53.70
10518;BME280;5307;42.548;22.968;2023-02-13T12:51:49;95343.13;;;6.81;53.33
10518;BME280;5307;42.548;22.968;2023-02-13T12:54:41;95345.38;;;6.58;53.02
10518;BME280;5307;42.548;22.968;2023-02-13T12:57:25;95333.34;;;6.45;52.70
10518;BME280;5307;42.548;22.968;2023-02-13T13:00:19;95334.50;;;6.40;53.76
10518;BME280;5307;42.548;22.968;2023-02-13T13:02:59;95331.41;;;6.38;52.00
10518;BME280;5307;42.548;22.968;2023-02-13T13:05:50;95331.34;;;6.24;52.85
10518;BME280;5307;42.548;22.968;2023-02-13T13:08:31;95338.03;;;6.51;53.03
10518;BME280;5307;42.548;22.968;2023-02-13T13:11:14;95325.16;;;6.20;51.56
10518;BME280;5307;42.548;22.968;2023-02-13T13:13:57;95332.91;;;6.32;51.27
10518;BME280;5307;42.548;22.968;2023-02-13T13:16:32;95327.47;;;6.29;51.34
10518;BME280;5307;42.548;22.968;2023-02-13T13:19:12;95324.38;;;6.27;51.81
10518;BME280;5307;42.548;22.968;2023-02-13T13:21:47;95322.84;;;6.33;52.58
10518;BME280;5307;42.548;22.968;2023-02-13T13:24:31;95322.84;;;6.33;52.02
10518;BME280;5307;42.548;22.968;2023-02-13T13:27:03;95320.81;;;6.05;51.06